Time;durP1;ratioP1;P1;durP2;ratioP2;P2;SDS_P1;SDS_P2;PMS_P1;PMS_P2;Temp;Humidity;BMP_temperature;BMP_pressure;BME280_temperature;BME280_humidity;BME280_pressure;Samples;Min_cycle;Max_cycle;Signal;HPM_P1;HPM_P2
2021/12/05 00:22:25;;;;;;;44.80;26.25;;;;;;;4.36;81.04;94567.31;5010862;28;20040;-61
2021/12/05 00:24:55;;;;;;;42.80;24.83;;;;;;;4.38;80.50;94565.53;4992120;28;20035;-65
2021/12/05 00:27:29;;;;;;;37.67;23.52;;;;;;;4.34;80.34;94563.19;4991326;28;20038;-66
2021/12/05 00:45:59;;;;;;;46.70;29.23;;;;;;;3.93;82.41;94553.13;5011040;28;20026;-61
2021/12/05 01:09:26;;;;;;;51.75;32.10;;;;;;;3.75;83.61;94508.84;5010471;28;20038;-60
2021/12/05 01:14:58;;;;;;;57.28;35.15;;;;;;;4.11;82.60;94543.81;5010813;28;20064;-61
2021/12/05 01:17:34;;;;;;;57.60;35.17;;;;;;;3.97;82.84;94534.25;5010317;28;20025;-66
2021/12/05 01:20:02;;;;;;;57.67;35.47;;;;;;;4.02;82.30;94532.31;5009724;28;20493;-63
2021/12/05 01:22:32;;;;;;;59.67;36.72;;;;;;;3.97;82.90;94529.13;5009475;28;20554;-63
2021/12/05 01:27:48;;;;;;;63.88;36.53;;;;;;;3.83;83.14;94522.09;4990977;28;20041;-64
2021/12/05 01:31:10;;;;;;;61.35;37.92;;;;;;;3.91;82.73;94524.31;4990727;28;20417;-62
2021/12/05 01:33:15;;;;;;;60.95;34.03;;;;;;;4.00;82.51;94518.75;5002660;28;20516;-63
2021/12/05 01:38:23;;;;;;;58.38;35.38;;;;;;;3.71;83.59;94497.16;5009735;28;20301;-68
2021/12/05 02:09:53;;;;;;;58.47;32.83;;;;;;;3.90;80.72;94458.88;4990186;28;20136;-62
2021/12/05 02:31:44;;;;;;;51.20;30.85;;;;;;;4.50;78.10;94541.13;5008448;28;20087;-61
2021/12/05 02:42:31;;;;;;;51.42;29.70;;;;;;;4.18;78.52;94491.59;5008822;28;20068;-66
2021/12/05 02:44:57;;;;;;;47.33;29.13;;;;;;;4.23;78.70;94492.19;5008500;28;20060;-64
2021/12/05 02:47:25;;;;;;;50.47;30.08;;;;;;;4.40;78.47;94525.44;5008527;28;20101;-61
2021/12/05 02:49:56;;;;;;;50.95;29.85;;;;;;;4.36;78.76;94518.81;5008994;28;20026;-62
2021/12/05 02:52:31;;;;;;;48.75;28.67;;;;;;;4.23;79.01;94490.50;5008459;28;20330;-62
2021/12/05 02:55:06;;;;;;;53.03;29.95;;;;;;;4.37;78.91;94514.53;5008350;28;20394;-64
2021/12/05 03:00:35;;;;;;;49.25;28.98;;;;;;;4.45;79.26;94502.25;5005934;28;20397;-62
2021/12/05 03:03:01;;;;;;;46.55;27.95;;;;;;;4.54;79.23;94512.03;5005564;28;20521;-65
2021/12/05 03:05:28;;;;;;;48.97;27.73;;;;;;;4.41;78.63;94487.94;5005672;28;20544;-61
2021/12/05 03:07:58;;;;;;;45.70;26.95;;;;;;;4.46;78.66;94495.41;5005337;28;20056;-68
2021/12/05 03:10:24;;;;;;;49.50;27.10;;;;;;;4.57;78.12;94488.88;5004635;28;20586;-64
2021/12/05 03:12:50;;;;;;;47.47;28.23;;;;;;;4.73;78.16;94496.63;5005868;28;20061;-68
2021/12/05 03:15:19;;;;;;;50.47;29.25;;;;;;;4.72;77.94;94486.47;5005617;28;20124;-70
2021/12/05 03:17:45;;;;;;;48.65;27.30;;;;;;;4.85;77.61;94504.59;5005735;28;20046;-62
2021/12/05 03:20:13;;;;;;;43.17;26.65;;;;;;;4.91;77.05;94506.88;5004989;28;20123;-63
2021/12/05 03:22:38;;;;;;;41.72;25.48;;;;;;;4.84;77.30;94496.13;5005538;28;20076;-62
2021/12/05 03:25:06;;;;;;;41.45;24.48;;;;;;;4.59;76.90;94450.50;5005290;28;20054;-62
2021/12/05 03:27:32;;;;;;;44.70;26.10;;;;;;;4.78;76.85;94469.13;5005591;28;20037;-62
2021/12/05 03:29:58;;;;;;;45.35;25.38;;;;;;;4.96;77.04;94502.34;5005527;28;20039;-61
2021/12/05 03:32:24;;;;;;;40.90;22.90;;;;;;;4.99;77.16;94502.19;5006359;28;20046;-62
2021/12/05 03:34:50;;;;;;;40.40;26.40;;;;;;;4.89;76.88;94480.56;5009560;28;20030;-65
2021/12/05 03:37:15;;;;;;;37.67;23.38;;;;;;;4.90;77.47;94503.50;5010452;28;20056;-65
2021/12/05 03:39:41;;;;;;;43.63;25.60;;;;;;;4.89;77.26;94499.28;5012027;28;20038;-65
2021/12/05 03:42:07;;;;;;;41.53;26.02;;;;;;;4.79;77.95;94492.97;5011789;28;20092;-65
2021/12/05 03:44:35;;;;;;;43.15;25.45;;;;;;;4.62;77.22;94445.25;5011498;28;20021;-71
2021/12/05 03:47:05;;;;;;;43.47;25.02;;;;;;;5.04;77.41;94492.56;5011622;28;20034;-70
2021/12/05 03:49:31;;;;;;;42.35;24.50;;;;;;;5.02;77.25;94496.09;5012021;28;20116;-69
2021/12/05 03:52:01;;;;;;;40.78;25.25;;;;;;;5.09;76.81;94500.84;5011750;28;20124;-69
2021/12/05 03:54:27;;;;;;;45.90;25.63;;;;;;;5.07;77.10;94500.09;5011768;28;20037;-60
2021/12/05 03:56:53;;;;;;;41.47;24.42;;;;;;;5.12;77.27;94498.13;5011592;28;20041;-66
2021/12/05 03:59:19;;;;;;;42.20;24.65;;;;;;;5.18;77.33;94489.31;5011990;28;20408;-68
2021/12/05 04:01:47;;;;;;;45.60;24.15;;;;;;;5.13;76.21;94475.94;5011419;28;20038;-66
2021/12/05 04:04:13;;;;;;;39.42;24.25;;;;;;;5.40;75.77;94499.28;5012017;28;20072;-65
2021/12/05 04:06:40;;;;;;;42.13;24.02;;;;;;;5.41;75.48;94500.13;5012254;28;20084;-68
2021/12/05 04:09:09;;;;;;;38.45;22.17;;;;;;;5.18;75.99;94499.53;5012831;28;20480;-62
2021/12/05 04:11:40;;;;;;;38.97;21.35;;;;;;;5.02;76.91;94506.31;5013734;28;20097;-69
2021/12/05 04:14:09;;;;;;;45.47;23.60;;;;;;;4.78;77.70;94489.56;5011330;28;20117;-70
2021/12/05 04:16:36;;;;;;;39.92;23.27;;;;;;;4.77;78.11;94481.97;5011299;28;20049;-73
2021/12/05 04:19:04;;;;;;;39.25;23.23;;;;;;;4.98;77.71;94505.66;5011272;28;20032;-71
2021/12/05 04:21:31;;;;;;;41.28;22.83;;;;;;;4.77;77.96;94459.84;5011446;28;20026;-73
2021/12/05 04:23:59;;;;;;;38.15;23.50;;;;;;;4.93;77.69;94482.88;5011028;28;20125;-66
2021/12/05 04:26:26;;;;;;;38.65;22.42;;;;;;;5.06;77.80;94503.53;5011355;28;20033;-65
2021/12/05 04:28:52;;;;;;;39.63;22.95;;;;;;;5.22;77.36;94516.38;5011296;28;20034;-66
2021/12/05 04:31:20;;;;;;;43.38;23.20;;;;;;;5.24;76.91;94508.66;5010594;28;20056;-71
2021/12/05 04:33:46;;;;;;;39.75;23.67;;;;;;;5.25;76.70;94525.66;5011057;28;20057;-68
2021/12/05 04:36:12;;;;;;;42.70;24.90;;;;;;;5.04;76.82;94487.47;5011074;28;20041;-68
2021/12/05 04:38:38;;;;;;;38.63;22.27;;;;;;;5.06;77.16;94474.63;5010841;28;20046;-72
2021/12/05 04:41:04;;;;;;;40.03;23.55;;;;;;;5.45;76.65;94517.78;5011451;28;20045;-72
2021/12/05 04:43:36;;;;;;;45.17;23.85;;;;;;;5.21;76.08;94465.34;5010104;28;20025;-70
2021/12/05 04:46:07;;;;;;;38.63;22.13;;;;;;;5.44;76.00;94510.19;5010759;28;20076;-74
2021/12/05 04:48:33;;;;;;;32.42;18.58;;;;;;;5.60;76.26;94521.28;5010681;28;20022;-70
2021/12/05 04:50:59;;;;;;;32.10;21.10;;;;;;;5.59;76.20;94527.31;5010936;28;20465;-61
2021/12/05 04:53:27;;;;;;;40.40;22.88;;;;;;;5.49;76.87;94524.41;5010947;28;20029;-61
2021/12/05 04:55:53;;;;;;;35.97;21.98;;;;;;;5.60;76.30;94528.97;5010194;28;20028;-69
2021/12/05 04:58:19;;;;;;;35.83;20.20;;;;;;;5.65;76.32;94533.84;5010802;28;20049;-63
2021/12/05 05:00:46;;;;;;;35.40;20.75;;;;;;;5.70;76.03;94532.69;5010675;28;20568;-68
2021/12/05 05:03:13;;;;;;;34.38;20.67;;;;;;;5.73;75.97;94544.50;5011225;28;20117;-66
2021/12/05 05:05:46;;;;;;;35.40;20.13;;;;;;;5.68;76.52;94539.63;5010373;28;20057;-65
2021/12/05 05:08:11;;;;;;;32.97;20.67;;;;;;;5.77;75.95;94552.84;5010586;28;20080;-65
2021/12/05 05:10:37;;;;;;;34.90;21.13;;;;;;;5.55;75.60;94518.16;5010570;28;20509;-62
2021/12/05 05:13:03;;;;;;;42.17;25.48;;;;;;;5.87;75.11;94548.91;5010597;28;20040;-62
2021/12/05 05:15:30;;;;;;;41.65;23.13;;;;;;;5.88;74.40;94545.44;5010172;28;20544;-60
2021/12/05 05:17:57;;;;;;;39.63;22.73;;;;;;;5.73;75.08;94553.94;5010668;28;20030;-61
2021/12/05 05:47:09;;;;;;;35.22;19.58;;;;;;;5.44;77.27;94544.25;4969860;28;20213;-62
2021/12/05 05:52:02;;;;;;;32.67;18.42;;;;;;;5.37;78.16;94565.09;4968413;28;20058;-64
2021/12/05 05:54:27;;;;;;;33.92;20.58;;;;;;;5.41;78.50;94539.31;4951625;28;20054;-62
2021/12/05 05:56:59;;;;;;;35.15;20.60;;;;;;;5.49;78.33;94544.03;4974223;28;20426;-63
2021/12/05 05:59:29;;;;;;;34.83;20.75;;;;;;;5.56;77.99;94526.63;4986526;28;20070;-61
2021/12/05 06:04:43;;;;;;;39.85;20.88;;;;;;;5.65;76.95;94534.66;4949116;28;20462;-69
2021/12/05 06:07:09;;;;;;;36.58;21.17;;;;;;;5.59;77.15;94544.38;4946484;28;20044;-68
2021/12/05 06:09:35;;;;;;;35.78;21.90;;;;;;;5.60;76.73;94554.53;4931639;29;20047;-67
2021/12/05 06:12:01;;;;;;;36.90;21.40;;;;;;;5.64;76.37;94556.06;4929470;28;20188;-66
2021/12/05 06:14:28;;;;;;;38.78;22.23;;;;;;;5.60;76.61;94544.31;4929639;29;20032;-69
2021/12/05 06:16:54;;;;;;;38.58;22.38;;;;;;;5.68;76.56;94551.59;4929703;29;20044;-68
2021/12/05 06:19:19;;;;;;;36.72;21.73;;;;;;;5.61;76.01;94529.81;4928753;29;20144;-64
2021/12/05 06:21:45;;;;;;;42.53;24.13;;;;;;;5.78;76.07;94560.44;4929198;28;20035;-71
2021/12/05 06:24:11;;;;;;;36.78;22.65;;;;;;;5.60;76.21;94548.59;4929518;28;20039;-69
2021/12/05 06:26:36;;;;;;;38.20;21.42;;;;;;;5.53;76.06;94545.53;4929360;29;20047;-65
2021/12/05 06:29:09;;;;;;;34.42;21.40;;;;;;;5.88;76.08;94573.59;4929116;29;20871;-62
2021/12/05 06:31:59;;;;;;;38.60;22.30;;;;;;;5.84;75.46;94587.47;4928991;29;20091;-72
2021/12/05 06:39:48;;;;;;;41.10;23.33;;;;;;;5.62;75.69;94588.53;4928999;29;20118;-62
2021/12/05 06:47:43;;;;;;;35.28;20.40;;;;;;;5.67;75.79;94578.06;4989492;28;20088;-65
2021/12/05 06:50:09;;;;;;;39.10;21.83;;;;;;;5.97;75.16;94616.66;4996182;28;20117;-63
2021/12/05 06:52:34;;;;;;;32.13;18.80;;;;;;;5.98;74.75;94627.72;5008919;28;20448;-62
2021/12/05 06:55:00;;;;;;;31.02;18.70;;;;;;;6.17;74.10;94617.38;5008703;28;20030;-62
2021/12/05 06:57:25;;;;;;;32.60;19.13;;;;;;;6.48;73.08;94615.72;5008564;28;20028;-67
2021/12/05 06:59:51;;;;;;;32.10;17.88;;;;;;;6.91;70.58;94632.19;5007389;28;20061;-65
2021/12/05 07:02:19;;;;;;;25.95;16.40;;;;;;;6.85;70.15;94621.44;5008569;28;20026;-67
2021/12/05 07:07:35;;;;;;;33.42;19.02;;;;;;;6.35;70.43;94552.38;5008178;28;20026;-67
2021/12/05 07:10:05;;;;;;;32.65;20.48;;;;;;;6.92;70.70;94625.31;5008217;28;20034;-71
2021/12/05 07:15:07;;;;;;;30.25;18.30;;;;;;;6.77;71.42;94606.47;5008591;28;20025;-69
2021/12/05 07:20:16;;;;;;;35.10;19.17;;;;;;;6.92;70.63;94625.31;5006152;28;20034;-65
2021/12/05 07:25:25;;;;;;;32.17;18.92;;;;;;;7.05;70.00;94610.94;5002957;28;20033;-70
2021/12/05 07:43:44;;;;;;;30.35;19.15;;;;;;;7.15;69.99;94604.38;5004028;28;20022;-67
2021/12/05 07:46:09;;;;;;;31.85;18.67;;;;;;;7.05;69.75;94587.00;5004962;28;20061;-71
2021/12/05 07:48:38;;;;;;;31.20;17.60;;;;;;;7.15;69.65;94601.00;5003901;28;20026;-64
2021/12/05 07:51:32;;;;;;;32.88;20.33;;;;;;;7.08;69.83;94599.66;5004341;28;20038;-65
2021/12/05 07:56:48;;;;;;;35.55;17.88;;;;;;;7.14;69.68;94568.56;4989550;28;20026;-64
2021/12/05 08:16:00;;;;;;;29.30;19.10;;;;;;;8.30;66.21;94598.56;5003555;28;20184;-67
2021/12/05 08:18:27;;;;;;;28.48;17.55;;;;;;;8.47;66.13;94592.44;5005259;28;20021;-68
2021/12/05 08:20:53;;;;;;;28.60;17.42;;;;;;;8.57;64.97;94577.28;5008660;28;20034;-66
2021/12/05 08:23:20;;;;;;;28.55;17.27;;;;;;;8.91;64.84;94611.16;5007443;28;20064;-66
2021/12/05 08:25:53;;;;;;;28.55;17.80;;;;;;;8.95;64.34;94615.16;5007772;28;20033;-65
2021/12/05 08:28:34;;;;;;;24.48;15.50;;;;;;;9.07;63.83;94611.84;5006919;28;20487;-67
2021/12/05 08:31:38;;;;;;;24.55;16.10;;;;;;;9.33;62.58;94610.16;5006724;28;20026;-63
2021/12/05 09:30:26;;;;;;;38.03;24.10;;;;;;;19.53;34.03;94506.34;5007748;28;20042;-74
2021/12/05 10:02:46;;;;;;;21.35;17.27;;;;;;;18.68;35.00;94449.06;5006675;28;20117;-72
2021/12/05 10:13:34;;;;;;;23.85;17.52;;;;;;;17.83;37.36;94390.69;5001717;28;20068;-74
2021/12/05 10:16:26;;;;;;;25.55;17.77;;;;;;;17.92;36.54;94461.19;5005156;28;20527;-74
2021/12/05 10:38:21;;;;;;;20.60;16.50;;;;;;;26.07;23.61;94409.53;5004634;28;20058;-73
2021/12/05 10:41:00;;;;;;;20.52;15.82;;;;;;;27.20;22.53;94420.63;4987555;28;20022;-74
2021/12/05 10:43:28;;;;;;;24.80;18.48;;;;;;;27.07;21.65;94355.34;5005002;28;20034;-75
2021/12/05 10:46:03;;;;;;;20.48;15.88;;;;;;;28.30;20.53;94398.88;5002464;28;20030;-68
2021/12/05 10:48:33;;;;;;;36.85;26.92;;;;;;;27.52;21.17;94402.09;5004477;28;20033;-68
2021/12/05 10:51:06;;;;;;;28.53;21.80;;;;;;;26.91;21.99;94414.91;5005059;28;20501;-67
2021/12/05 10:53:36;;;;;;;25.75;18.98;;;;;;;25.94;22.75;94410.34;5003912;28;20548;-71
2021/12/05 10:56:07;;;;;;;14.82;12.65;;;;;;;27.11;22.01;94398.91;5004432;28;20049;-69
2021/12/05 10:58:37;;;;;;;18.65;14.55;;;;;;;28.99;20.32;94398.63;5003945;28;20038;-69
2021/12/05 11:01:05;;;;;;;15.85;13.10;;;;;;;29.51;19.07;94382.91;5005168;28;20045;-70
2021/12/05 11:03:30;;;;;;;14.60;12.65;;;;;;;28.44;20.11;94374.88;5004738;28;20062;-68
2021/12/05 11:05:56;;;;;;;16.13;13.80;;;;;;;29.32;19.57;94347.72;5004231;28;20069;-69
2021/12/05 11:08:38;;;;;;;15.93;13.05;;;;;;;30.41;18.43;94380.91;5003851;28;20529;-68
2021/12/05 11:11:08;;;;;;;15.70;13.93;;;;;;;30.80;17.03;94332.44;5004535;28;20125;-68
2021/12/05 11:13:37;;;;;;;18.98;15.40;;;;;;;30.69;17.85;94335.97;5004300;28;20116;-69
2021/12/05 11:16:03;;;;;;;18.90;15.55;;;;;;;31.26;17.18;94365.16;5000179;28;20033;-69
2021/12/05 11:18:45;;;;;;;19.40;15.73;;;;;;;31.40;16.83;94351.53;5003759;28;20040;-70
2021/12/05 11:21:33;;;;;;;16.35;13.27;;;;;;;31.49;16.53;94348.22;5004462;28;20120;-70
2021/12/05 11:24:23;;;;;;;16.83;13.43;;;;;;;31.61;16.60;94358.81;5004257;28;20363;-70
2021/12/05 11:27:01;;;;;;;18.20;14.95;;;;;;;31.10;17.32;94345.47;5001925;28;20045;-69
2021/12/05 11:29:42;;;;;;;18.42;15.43;;;;;;;31.34;16.70;94284.88;5001678;28;20131;-69
2021/12/05 11:32:15;;;;;;;18.63;14.40;;;;;;;31.39;17.22;94331.28;5001611;28;20551;-69
2021/12/05 11:34:41;;;;;;;18.00;14.88;;;;;;;30.20;18.07;94325.69;5001448;28;20030;-68
2021/12/05 11:37:06;;;;;;;16.92;13.32;;;;;;;30.28;18.48;94321.88;5002590;28;20429;-69
2021/12/05 11:39:32;;;;;;;17.63;15.75;;;;;;;30.78;17.72;94337.19;5000263;28;20041;-71
2021/12/05 11:41:57;;;;;;;20.48;15.25;;;;;;;31.20;16.76;94328.06;5001481;28;20092;-68
2021/12/05 11:44:25;;;;;;;16.30;12.60;;;;;;;31.08;16.46;94302.31;4998758;28;20569;-70
2021/12/05 11:46:51;;;;;;;21.88;13.90;;;;;;;31.32;16.83;94318.13;5001335;28;20037;-68
2021/12/05 11:49:25;;;;;;;22.27;14.20;;;;;;;31.30;16.55;94289.09;4984771;28;20030;-69
2021/12/05 11:51:56;;;;;;;18.02;12.60;;;;;;;31.65;16.35;94317.31;5001626;28;20108;-68
2021/12/05 11:54:27;;;;;;;15.23;12.35;;;;;;;31.75;16.35;94291.84;5003170;28;20030;-70
2021/12/05 11:56:58;;;;;;;15.70;13.10;;;;;;;31.85;15.80;94311.44;5001576;28;20050;-69
2021/12/05 11:59:32;;;;;;;16.98;13.52;;;;;;;31.55;16.63;94305.69;5005067;28;20033;-71
2021/12/05 12:02:08;;;;;;;17.52;12.88;;;;;;;31.26;16.66;94308.44;4987378;28;20030;-72
2021/12/05 12:04:51;;;;;;;11.63;10.25;;;;;;;31.49;16.50;94304.78;5007780;28;20038;-71
2021/12/05 12:07:37;;;;;;;14.73;10.38;;;;;;;31.70;15.75;94298.72;5005522;28;20045;-70
2021/12/05 12:10:26;;;;;;;14.35;10.60;;;;;;;31.38;16.66;94279.84;5004411;28;20108;-71
2021/12/05 12:12:59;;;;;;;13.27;10.00;;;;;;;30.64;16.60;94261.38;5007041;28;20081;-72
2021/12/05 12:15:27;;;;;;;13.60;10.13;;;;;;;30.57;17.28;94304.09;5006467;28;20432;-71
2021/12/05 12:18:02;;;;;;;16.02;11.00;;;;;;;30.58;16.77;94297.72;4998020;28;20039;-74
2021/12/05 12:20:29;;;;;;;17.13;12.68;;;;;;;29.85;17.73;94268.94;4991225;28;20141;-75
2021/12/05 12:22:56;;;;;;;16.90;13.25;;;;;;;29.48;17.77;94287.81;5006926;28;20033;-73
2021/12/05 12:25:31;;;;;;;16.42;12.45;;;;;;;29.37;17.85;94267.38;5001790;28;20135;-70
2021/12/05 12:27:57;;;;;;;15.93;11.35;;;;;;;29.11;18.60;94277.38;5007457;28;20053;-71
2021/12/05 12:30:26;;;;;;;18.98;12.27;;;;;;;28.57;18.98;94240.25;5008134;28;20072;-71
2021/12/05 12:33:21;;;;;;;15.73;12.63;;;;;;;28.75;18.90;94259.81;5007059;28;20060;-70
2021/12/05 12:35:48;;;;;;;14.93;10.93;;;;;;;28.84;18.83;94269.03;5004736;28;20440;-70
2021/12/05 12:38:24;;;;;;;16.13;11.85;;;;;;;28.56;19.59;94274.94;5003894;28;20050;-76
2021/12/05 12:41:00;;;;;;;14.60;10.63;;;;;;;28.61;18.50;94219.41;5000929;28;20093;-72
2021/12/05 12:43:51;;;;;;;15.38;11.45;;;;;;;28.35;19.19;94261.16;5003313;28;20138;-71
2021/12/05 12:46:20;;;;;;;15.63;11.35;;;;;;;28.31;19.48;94259.19;5004928;28;20611;-71
2021/12/05 12:48:47;;;;;;;14.35;11.02;;;;;;;27.97;19.54;94262.25;5004085;28;20038;-75
2021/12/05 12:51:30;;;;;;;15.32;11.82;;;;;;;23.84;24.16;94218.09;5004207;28;20847;-72
2021/12/05 12:54:01;;;;;;;15.68;11.43;;;;;;;21.53;27.88;94244.75;5004174;28;20505;-69
2021/12/05 12:56:27;;;;;;;17.25;12.80;;;;;;;20.07;30.18;94270.28;5004257;28;20085;-71
2021/12/05 12:59:05;;;;;;;19.17;13.13;;;;;;;20.71;29.28;94220.22;5004001;28;20045;-73
2021/12/05 13:10:11;;;;;;;14.93;11.55;;;;;;;17.62;34.48;94228.63;5002848;28;20084;-71
2021/12/05 13:12:40;;;;;;;19.75;13.18;;;;;;;16.88;36.80;94283.03;5004327;28;20061;-69
2021/12/05 13:15:24;;;;;;;18.80;12.20;;;;;;;16.04;39.07;94279.09;5006320;28;20155;-70
2021/12/05 13:18:10;;;;;;;18.38;13.25;;;;;;;15.19;41.26;94261.88;5001469;28;20591;-72
2021/12/05 13:20:41;;;;;;;19.05;13.38;;;;;;;14.66;43.21;94275.44;5004974;28;20489;-73
2021/12/05 13:23:27;;;;;;;23.27;14.13;;;;;;;14.32;44.55;94284.44;5008320;28;20045;-68
2021/12/05 13:26:19;;;;;;;18.95;13.80;;;;;;;13.96;45.08;94273.78;5009515;28;20030;-66
2021/12/05 13:28:56;;;;;;;21.67;13.30;;;;;;;13.44;46.91;94273.16;5007526;28;20535;-69
2021/12/05 13:31:31;;;;;;;22.10;13.88;;;;;;;13.18;48.53;94272.75;5007741;28;20121;-72
2021/12/05 13:34:21;;;;;;;17.90;13.10;;;;;;;12.87;48.83;94262.41;4997421;28;20479;-69
2021/12/05 13:36:51;;;;;;;16.80;11.88;;;;;;;12.39;49.41;94231.94;5009894;28;20064;-70
2021/12/05 13:39:29;;;;;;;19.80;12.65;;;;;;;12.46;49.79;94274.44;5009846;28;20037;-69
2021/12/05 13:42:04;;;;;;;19.63;12.18;;;;;;;12.21;50.27;94278.22;5010096;28;20033;-66
2021/12/05 13:45:00;;;;;;;19.65;12.73;;;;;;;12.17;50.92;94280.25;5009390;28;20026;-65
2021/12/05 13:47:32;;;;;;;21.23;13.20;;;;;;;11.92;51.34;94271.88;5009995;28;20037;-69
2021/12/05 13:50:16;;;;;;;23.92;15.13;;;;;;;11.84;52.54;94278.56;5008888;28;20030;-67
2021/12/05 13:52:45;;;;;;;23.80;15.48;;;;;;;11.61;53.41;94280.38;5009423;28;20534;-72
2021/12/05 13:55:33;;;;;;;22.58;14.48;;;;;;;11.64;53.21;94275.81;5009073;28;20041;-66
2021/12/05 13:58:23;;;;;;;22.42;14.65;;;;;;;11.36;53.98;94290.03;5009914;28;20058;-68
2021/12/05 14:01:01;;;;;;;22.50;16.10;;;;;;;11.07;54.66;94282.81;4999555;28;20121;-68
2021/12/05 14:03:51;;;;;;;22.17;16.00;;;;;;;10.83;55.59;94282.91;5007713;28;20156;-72
2021/12/05 14:06:31;;;;;;;23.88;15.63;;;;;;;10.75;56.00;94283.47;5008923;28;20117;-69
2021/12/05 14:09:07;;;;;;;20.48;14.65;;;;;;;10.53;56.35;94268.81;5009678;28;20083;-67
2021/12/05 14:11:36;;;;;;;15.68;11.80;;;;;;;10.56;55.84;94289.22;5009973;28;20030;-68
2021/12/05 14:14:06;;;;;;;17.00;12.13;;;;;;;10.53;56.71;94288.63;5009250;28;20036;-69
2021/12/05 14:16:39;;;;;;;18.92;12.32;;;;;;;10.02;56.38;94231.31;5008222;28;20026;-71
2021/12/05 14:19:08;;;;;;;18.13;13.10;;;;;;;10.10;56.82;94265.03;5008602;28;20034;-67
2021/12/05 14:21:39;;;;;;;21.48;13.48;;;;;;;10.25;57.95;94288.88;5008961;28;20480;-70
2021/12/05 14:24:04;;;;;;;;;;;;;;;10.12;57.58;94280.41;5009289;28;20543;-70
2021/12/05 14:26:32;;;;;;;16.05;12.25;;;;;;;9.89;58.26;94264.84;5009271;28;19917;-73
2021/12/05 14:29:12;;;;;;;22.38;13.82;;;;;;;9.43;58.52;94200.38;5009196;28;20030;-67
2021/12/05 14:31:41;;;;;;;21.50;14.02;;;;;;;9.87;59.05;94286.47;5008096;28;20029;-67
2021/12/05 14:34:11;;;;;;;17.88;13.00;;;;;;;9.78;59.60;94295.69;4999059;28;20084;-74
2021/12/05 14:36:46;;;;;;;20.92;13.75;;;;;;;9.67;60.24;94291.28;5006618;28;20587;-71
2021/12/05 14:39:11;;;;;;;20.92;13.05;;;;;;;9.62;60.64;94287.41;5008464;28;20038;-69
2021/12/05 14:41:38;;;;;;;27.58;16.85;;;;;;;9.48;61.31;94285.84;5008774;28;20036;-69
2021/12/05 14:44:05;;;;;;;22.73;14.85;;;;;;;9.53;61.33;94284.56;5007433;28;20046;-66
2021/12/05 14:46:30;;;;;;;23.08;14.77;;;;;;;9.04;61.21;94222.88;5008135;28;20048;-66
2021/12/05 14:48:58;;;;;;;20.23;14.15;;;;;;;8.86;62.38;94224.97;5007802;28;20033;-67
2021/12/05 14:51:37;;;;;;;23.63;15.32;;;;;;;9.18;62.25;94290.44;5008317;28;20174;-67
2021/12/05 14:54:04;;;;;;;31.27;18.30;;;;;;;9.08;62.79;94291.16;5008248;28;20025;-69
2021/12/05 14:56:32;;;;;;;26.25;17.45;;;;;;;9.09;62.51;94298.78;5007792;28;20030;-67
2021/12/05 14:59:14;;;;;;;25.95;16.55;;;;;;;8.46;61.60;94216.47;5008883;28;20034;-73
2021/12/05 15:01:42;;;;;;;25.20;15.43;;;;;;;8.84;62.32;94304.78;5006728;28;20038;-70
2021/12/05 15:04:10;;;;;;;25.52;16.55;;;;;;;8.68;62.73;94292.13;5007869;28;20025;-69
2021/12/05 15:06:44;;;;;;;26.88;17.92;;;;;;;8.50;63.08;94286.47;5006223;28;20030;-65
2021/12/05 15:09:27;;;;;;;24.20;16.63;;;;;;;7.62;63.97;94166.34;5006325;28;20038;-74
2021/12/05 15:11:57;;;;;;;27.42;19.10;;;;;;;8.42;63.99;94315.19;5007795;28;20034;-69
2021/12/05 15:14:23;;;;;;;24.65;16.73;;;;;;;8.30;64.20;94308.31;5008300;28;20441;-68
2021/12/05 15:16:54;;;;;;;26.52;19.52;;;;;;;7.71;64.41;94227.34;5008202;28;20050;-65
2021/12/05 15:19:20;;;;;;;24.80;17.35;;;;;;;7.19;64.93;94148.59;5007905;28;20034;-67
2021/12/05 15:21:45;;;;;;;24.40;17.80;;;;;;;8.07;65.28;94312.38;5007975;28;20042;-68
2021/12/05 15:24:16;;;;;;;27.33;18.58;;;;;;;8.00;65.78;94326.50;5008208;28;20105;-66
2021/12/05 15:26:42;;;;;;;22.65;15.80;;;;;;;7.71;66.02;94304.34;5008427;28;20038;-64
2021/12/05 15:29:08;;;;;;;25.92;16.23;;;;;;;7.39;66.66;94277.31;5008287;28;20040;-67
2021/12/05 15:31:39;;;;;;;25.17;17.23;;;;;;;7.69;66.93;94324.16;5006177;28;20038;-66
2021/12/05 15:34:24;;;;;;;24.48;17.52;;;;;;;7.50;67.33;94303.94;5008317;28;20513;-67
2021/12/05 15:36:51;;;;;;;28.90;20.58;;;;;;;7.48;67.54;94289.56;5007910;28;20112;-67
2021/12/05 15:39:21;;;;;;;30.10;21.25;;;;;;;7.44;68.35;94303.50;5007907;28;20119;-69
2021/12/05 15:41:56;;;;;;;33.60;19.80;;;;;;;7.41;68.36;94324.19;5022424;28;20515;-71
2021/12/05 15:44:36;;;;;;;28.00;19.25;;;;;;;7.17;68.81;94317.91;5007607;28;20022;-67
2021/12/05 15:47:32;;;;;;;30.58;19.15;;;;;;;7.14;69.20;94323.22;5006655;28;20219;-68
2021/12/05 15:50:00;;;;;;;32.33;19.08;;;;;;;7.21;69.26;94333.13;5005419;28;20042;-65
2021/12/05 15:52:40;;;;;;;32.67;20.08;;;;;;;7.12;69.73;94340.44;4998523;28;20038;-70
2021/12/05 15:55:30;;;;;;;29.08;20.73;;;;;;;7.07;70.19;94357.84;4985960;28;20045;-67
2021/12/05 15:58:08;;;;;;;25.90;18.17;;;;;;;6.76;70.41;94316.09;4985884;28;20651;-67
2021/12/05 16:00:41;;;;;;;28.75;18.83;;;;;;;6.71;70.25;94312.19;4985664;28;20042;-69
2021/12/05 16:03:13;;;;;;;31.70;21.08;;;;;;;6.92;70.88;94351.06;4990830;28;20038;-68
2021/12/05 16:05:42;;;;;;;31.40;20.58;;;;;;;6.74;71.09;94333.31;5005174;28;20033;-67
2021/12/05 16:08:11;;;;;;;37.72;21.38;;;;;;;6.87;71.41;94358.19;5004587;28;20141;-65
2021/12/05 16:10:40;;;;;;;33.92;20.75;;;;;;;6.84;71.11;94371.19;5005060;28;20099;-68
2021/12/05 16:13:11;;;;;;;38.13;24.67;;;;;;;6.65;71.04;94338.97;5003613;28;20133;-66
2021/12/05 16:15:37;;;;;;;;;;;;;;;6.79;71.42;94368.91;5005739;28;20046;-66
2021/12/05 16:18:03;;;;;;;36.05;23.25;;;;;;;6.76;71.71;94346.03;5005254;28;19914;-69
2021/12/05 16:20:36;;;;;;;39.53;23.73;;;;;;;6.13;72.07;94280.50;5005095;28;20060;-76
2021/12/05 16:23:07;;;;;;;30.83;21.05;;;;;;;6.70;71.91;94379.69;5005043;28;20030;-70
2021/12/05 16:25:37;;;;;;;26.83;19.80;;;;;;;6.61;71.72;94350.31;5000896;28;20132;-72
2021/12/05 16:28:05;;;;;;;32.20;20.80;;;;;;;6.61;72.22;94365.69;4988563;28;20087;-70
2021/12/05 16:30:40;;;;;;;30.50;20.70;;;;;;;6.59;72.30;94355.53;5000700;28;20042;-78
2021/12/05 16:33:08;;;;;;;33.10;20.25;;;;;;;6.62;72.41;94373.28;5007923;28;20148;-75
2021/12/05 16:35:50;;;;;;;39.53;21.48;;;;;;;6.50;72.57;94371.41;5007549;28;20421;-68
2021/12/05 16:38:26;;;;;;;38.22;23.38;;;;;;;6.57;72.79;94384.69;5007812;28;20061;-70
2021/12/05 16:41:12;;;;;;;33.30;21.02;;;;;;;6.39;72.84;94355.84;5010756;28;20030;-69
2021/12/05 16:43:46;;;;;;;34.58;21.50;;;;;;;6.35;72.74;94350.06;5010415;28;20096;-68
2021/12/05 16:46:26;;;;;;;40.30;27.08;;;;;;;6.47;72.82;94373.34;5010807;28;20060;-67
2021/12/05 16:48:53;;;;;;;35.90;21.88;;;;;;;6.53;72.72;94393.47;5011171;28;20064;-73
2021/12/05 16:51:26;;;;;;;33.75;21.95;;;;;;;6.53;72.69;94366.13;5010708;28;20041;-68
2021/12/05 16:54:01;;;;;;;34.53;21.55;;;;;;;6.52;72.71;94346.53;5026002;28;20037;-69
2021/12/05 16:57:06;;;;;;;34.38;21.05;;;;;;;6.29;73.25;94380.31;5011352;28;20481;-76
2021/12/05 16:59:37;;;;;;;38.17;20.85;;;;;;;5.95;73.82;94343.78;4989566;28;20039;-65
2021/12/05 17:02:24;;;;;;;29.08;18.15;;;;;;;6.17;74.33;94382.66;4988217;28;20041;-82
2021/12/05 17:05:02;;;;;;;32.42;20.27;;;;;;;6.17;74.47;94387.78;5004999;28;20449;-71
2021/12/05 17:07:43;;;;;;;26.40;17.83;;;;;;;6.12;74.53;94392.34;4987650;28;20065;-67
2021/12/05 17:10:21;;;;;;;29.65;18.25;;;;;;;6.14;74.18;94394.81;4988782;28;20050;-71
2021/12/05 17:12:49;;;;;;;31.67;19.00;;;;;;;6.06;74.49;94385.81;4988021;28;20390;-64
2021/12/05 17:15:35;;;;;;;32.05;20.42;;;;;;;5.83;74.64;94348.66;4987965;28;20502;-77
2021/12/05 17:18:04;;;;;;;32.83;20.38;;;;;;;6.05;74.90;94394.41;4988789;28;20119;-80
2021/12/05 17:20:43;;;;;;;30.85;19.83;;;;;;;6.11;74.73;94411.16;4988386;28;20026;-65
2021/12/05 17:23:21;;;;;;;32.72;19.27;;;;;;;6.03;74.55;94370.66;4987275;28;20446;-77